Time;durP1;ratioP1;P1;durP2;ratioP2;P2;SDS_P1;SDS_P2;PMS_P1;PMS_P2;Temp;Humidity;BMP_temperature;BMP_pressure;BME280_temperature;BME280_humidity;BME280_pressure;Samples;Min_cycle;Max_cycle;Signal;HPM_P1;HPM_P2
2021/06/14 00:09:39;;;;;;;6.40;3.13;;;;;;;23.37;36.04;101905.28;31253279;28;20288;-60
2021/06/14 00:24:40;;;;;;;5.67;3.10;;;;;;;23.37;36.34;101891.19;31250432;28;20480;-62
2021/06/14 00:39:41;;;;;;;5.90;3.40;;;;;;;23.37;36.25;101885.88;31249987;28;20296;-65
2021/06/14 00:54:42;;;;;;;6.17;3.40;;;;;;;23.37;36.16;101875.25;31229616;28;20779;-59
2021/06/14 01:09:43;;;;;;;7.23;3.20;;;;;;;23.35;36.38;101872.72;31228300;28;20284;-61
2021/06/14 01:24:50;;;;;;;5.30;2.80;;;;;;;23.34;36.50;101865.75;31244147;28;20296;-61
2021/06/14 01:39:51;;;;;;;5.05;3.00;;;;;;;23.32;36.40;101857.09;31220638;28;20690;-63
2021/06/14 01:54:53;;;;;;;6.87;3.40;;;;;;;23.32;36.60;101849.13;31222037;28;20033;-60
2021/06/14 02:09:54;;;;;;;4.97;2.90;;;;;;;23.31;36.55;101839.47;31221628;28;20291;-63
2021/06/14 02:24:55;;;;;;;5.50;3.00;;;;;;;23.30;36.50;101843.09;31221021;28;20451;-60
2021/06/14 02:39:58;;;;;;;5.27;2.90;;;;;;;23.30;36.68;101831.66;31236942;28;20052;-61
2021/06/14 02:55:02;;;;;;;5.47;3.20;;;;;;;23.30;36.61;101816.59;31204061;28;20338;-62
2021/06/14 03:10:08;;;;;;;6.20;3.50;;;;;;;23.30;36.57;101816.59;31217922;28;20403;-61
2021/06/14 03:25:09;;;;;;;5.20;2.90;;;;;;;23.32;36.54;101805.81;31214001;28;20115;-59
2021/06/14 03:40:11;;;;;;;4.60;3.20;;;;;;;23.35;36.68;101801.09;31238639;28;20045;-65
2021/06/14 03:55:12;;;;;;;6.78;3.90;;;;;;;23.38;36.57;101815.91;31237320;28;20052;-59
2021/06/14 04:10:13;;;;;;;5.70;3.13;;;;;;;23.41;36.60;101815.66;31235873;28;20462;-64
2021/06/14 04:25:14;;;;;;;4.90;3.45;;;;;;;23.43;36.61;101803.06;31252357;28;20029;-58
2021/06/14 04:40:15;;;;;;;5.70;3.23;;;;;;;23.46;36.57;101794.88;31250536;28;20418;-59
2021/06/14 04:55:16;;;;;;;6.03;3.50;;;;;;;23.49;36.56;101797.22;31231504;28;20338;-57
2021/06/14 05:10:17;;;;;;;5.37;3.27;;;;;;;23.53;36.76;101803.13;31247395;28;20087;-61
2021/06/14 05:25:18;;;;;;;6.80;3.37;;;;;;;23.56;36.59;101803.69;31211606;28;20658;-58
2021/06/14 05:40:19;;;;;;;6.70;3.13;;;;;;;23.61;36.66;101808.56;31242690;28;20308;-56
2021/06/14 05:55:20;;;;;;;6.07;3.13;;;;;;;23.64;36.54;101810.97;31242365;28;20292;-61
2021/06/14 06:10:21;;;;;;;4.68;2.95;;;;;;;23.69;36.68;101826.50;31236757;28;20316;-62
2021/06/14 06:25:23;;;;;;;8.43;4.50;;;;;;;22.94;35.93;101818.75;31227999;28;20087;-59
2021/06/14 06:40:24;;;;;;;10.00;4.78;;;;;;;22.16;37.89;101807.56;31217653;28;20304;-61
2021/06/14 06:55:25;;;;;;;8.07;4.23;;;;;;;21.77;38.60;101801.06;31225961;28;20033;-59
2021/06/14 07:10:26;;;;;;;7.00;4.10;;;;;;;21.88;38.88;101795.72;31244480;28;20299;-58
2021/06/14 07:25:27;;;;;;;9.77;3.93;;;;;;;21.92;38.85;101768.06;31246748;28;20291;-62
2021/06/14 07:40:28;;;;;;;6.87;3.50;;;;;;;21.94;38.89;101792.59;31251936;28;20317;-59
2021/06/14 07:55:29;;;;;;;7.60;4.17;;;;;;;22.28;38.43;101771.28;31228907;28;20284;-61
2021/06/14 08:10:30;;;;;;;12.18;4.40;;;;;;;22.21;38.74;101759.53;31224602;28;20315;-60
2021/06/14 08:25:32;;;;;;;10.33;6.80;;;;;;;22.32;38.52;101746.25;31240549;28;20037;-61
2021/06/14 08:40:34;;;;;;;5.75;3.55;;;;;;;22.69;37.05;101743.13;31235370;28;20300;-59
2021/06/14 08:55:35;;;;;;;5.90;3.05;;;;;;;22.98;36.73;101727.38;31223156;28;20075;-60
2021/06/14 09:10:37;;;;;;;14.85;7.45;;;;;;;23.03;35.97;101708.44;31217111;28;20033;-62
2021/06/14 09:25:45;;;;;;;9.40;4.63;;;;;;;23.39;35.72;101692.91;31256882;28;20034;-60
2021/06/14 09:40:48;;;;;;;7.65;3.80;;;;;;;23.63;35.36;101661.50;31204125;28;20076;-61
2021/06/14 09:55:50;;;;;;;5.55;3.20;;;;;;;23.80;35.08;101646.72;31225825;28;20461;-61
2021/06/14 10:10:59;;;;;;;5.30;3.05;;;;;;;23.91;32.94;101621.81;31230048;28;20740;-61
2021/06/14 10:26:00;;;;;;;4.38;2.90;;;;;;;23.93;31.79;101609.25;31231610;28;20553;-57
2021/06/14 10:41:01;;;;;;;6.68;2.42;;;;;;;24.08;33.46;101587.56;31170059;28;20049;-61
2021/06/14 10:56:02;;;;;;;4.63;2.47;;;;;;;24.19;33.63;101574.97;31157869;28;20026;-60
2021/06/14 11:11:04;;;;;;;5.68;2.35;;;;;;;24.34;33.83;101547.91;31116426;28;20413;-63
2021/06/14 11:26:06;;;;;;;5.38;2.80;;;;;;;24.42;33.52;101532.09;31113029;28;20084;-60
2021/06/14 11:41:07;;;;;;;6.05;2.40;;;;;;;24.52;33.81;101505.47;31231204;28;20029;-60
2021/06/14 11:56:11;;;;;;;4.87;2.87;;;;;;;24.58;33.69;101476.50;31236215;28;20035;-60
2021/06/14 12:11:12;;;;;;;5.87;2.43;;;;;;;24.67;33.49;101464.13;31233357;28;20295;-60
2021/06/14 12:26:13;;;;;;;4.20;2.40;;;;;;;24.71;33.37;101446.84;31253911;28;20033;-60
2021/06/14 12:41:17;;;;;;;5.07;2.60;;;;;;;24.78;34.13;101425.81;31253383;28;20300;-58
2021/06/14 12:56:18;;;;;;;4.28;2.45;;;;;;;24.87;34.01;101423.06;31249843;28;20318;-60
2021/06/14 13:11:19;;;;;;;5.27;2.83;;;;;;;24.90;34.36;101411.31;31238316;28;20041;-64
2021/06/14 13:26:21;;;;;;;5.03;2.47;;;;;;;24.96;34.80;101393.91;31244297;28;20847;-59
2021/06/14 13:41:24;;;;;;;4.72;3.03;;;;;;;24.98;34.81;101387.44;31223396;28;20059;-58
2021/06/14 13:56:25;;;;;;;5.20;2.70;;;;;;;25.01;35.34;101371.16;31247369;28;20149;-58
2021/06/14 14:11:26;;;;;;;6.37;2.40;;;;;;;25.02;35.12;101364.88;31245988;28;20029;-57
2021/06/14 14:26:27;;;;;;;5.28;2.30;;;;;;;25.03;34.69;101358.53;31233750;28;20431;-56
2021/06/14 14:41:28;;;;;;;4.43;2.30;;;;;;;24.99;35.16;101346.56;31248978;28;20144;-59
2021/06/14 14:56:30;;;;;;;3.83;2.40;;;;;;;24.97;35.36;101324.63;31217927;28;20282;-63
2021/06/14 15:11:31;;;;;;;5.10;2.80;;;;;;;24.95;35.73;101307.16;31215609;28;20789;-57
2021/06/14 15:26:32;;;;;;;4.47;2.10;;;;;;;24.94;35.80;101290.34;31220668;28;20048;-60
2021/06/14 15:41:33;;;;;;;5.63;2.47;;;;;;;24.93;36.10;101274.56;31251645;28;20298;-60
2021/06/14 15:56:34;;;;;;;4.43;2.53;;;;;;;24.92;36.39;101265.72;31237155;28;20316;-59
2021/06/14 16:11:35;;;;;;;3.43;2.13;;;;;;;24.92;36.39;101256.91;31236689;28;20334;-61
2021/06/14 16:26:36;;;;;;;5.77;2.50;;;;;;;24.85;35.39;101241.63;31230298;28;20303;-62
2021/06/14 16:41:38;;;;;;;6.50;2.90;;;;;;;24.79;35.40;101234.25;31210264;28;20315;-59
2021/06/14 16:56:38;;;;;;;7.93;3.13;;;;;;;24.76;35.22;101212.47;31233090;28;20758;-57
2021/06/14 17:11:40;;;;;;;5.10;2.80;;;;;;;24.69;35.29;101200.81;31225103;28;20054;-62
2021/06/14 17:26:40;;;;;;;4.65;2.70;;;;;;;24.64;35.34;101195.94;31238952;28;20296;-61
2021/06/14 17:41:41;;;;;;;3.80;2.47;;;;;;;24.59;35.61;101169.84;31232168;28;20037;-61
2021/06/14 17:56:42;;;;;;;6.70;3.10;;;;;;;24.66;36.00;101175.38;31208213;28;20276;-59
2021/06/14 18:11:43;;;;;;;8.30;3.80;;;;;;;24.62;35.81;101166.91;31187128;28;20644;-53
2021/06/14 18:26:44;;;;;;;13.50;9.90;;;;;;;24.62;36.11;101160.72;31184927;28;20311;-54
2021/06/14 18:41:47;;;;;;;11.80;6.43;;;;;;;24.61;36.69;101157.25;31195331;28;20310;-58
2021/06/14 18:56:48;;;;;;;9.93;5.28;;;;;;;24.61;37.00;101156.41;31220668;28;20705;-57
2021/06/14 19:11:49;;;;;;;8.40;4.50;;;;;;;24.60;36.96;101170.69;31226224;28;20033;-57
2021/06/14 19:26:50;;;;;;;6.53;4.10;;;;;;;24.55;37.13;101189.75;31211026;28;20303;-58
2021/06/14 19:41:51;;;;;;;5.63;4.28;;;;;;;24.47;36.89;101203.00;31077466;28;20728;-57
2021/06/14 19:56:52;;;;;;;8.33;4.77;;;;;;;24.39;37.14;101210.88;31078991;28;20048;-52
2021/06/14 20:11:53;;;;;;;7.17;4.53;;;;;;;24.28;37.98;101203.16;31086984;28;20304;-52
2021/06/14 20:26:54;;;;;;;7.50;4.10;;;;;;;24.17;38.20;101202.44;31112522;28;20288;-54
2021/06/14 20:41:57;;;;;;;9.10;4.20;;;;;;;24.08;38.35;101207.84;31197597;28;20296;-53
2021/06/14 20:56:58;;;;;;;6.05;4.15;;;;;;;23.96;38.58;101202.75;31247896;28;20295;-58
2021/06/14 21:11:59;;;;;;;9.03;4.67;;;;;;;23.88;38.50;101207.16;31233818;28;20041;-53
2021/06/14 21:27:00;;;;;;;8.00;4.47;;;;;;;23.94;38.81;101210.03;31209143;28;20315;-59
2021/06/14 21:42:01;;;;;;;5.90;4.00;;;;;;;24.06;38.31;101196.53;31212545;28;20292;-61
2021/06/14 21:57:02;;;;;;;7.90;4.53;;;;;;;23.94;38.49;101199.41;31229824;28;20292;-61
2021/06/14 22:12:04;;;;;;;5.70;4.00;;;;;;;24.03;38.33;101197.66;31232350;28;20341;-62
2021/06/14 22:27:05;;;;;;;7.25;3.70;;;;;;;24.06;38.14;101185.91;31235693;28;20428;-61
2021/06/14 22:42:06;;;;;;;7.00;4.13;;;;;;;24.04;38.22;101170.94;31231927;28;20110;-62
2021/06/14 22:57:07;;;;;;;7.77;4.00;;;;;;;24.05;38.20;101166.47;31219687;28;20542;-62
2021/06/14 23:12:08;;;;;;;7.13;3.90;;;;;;;24.04;38.08;101167.47;31236109;28;20287;-60
2021/06/14 23:27:09;;;;;;;5.78;3.75;;;;;;;24.02;38.06;101162.28;31233951;28;20292;-61
2021/06/14 23:42:10;;;;;;;5.28;3.60;;;;;;;24.02;38.27;101161.47;31247383;28;20091;-61
2021/06/14 23:57:11;;;;;;;5.40;3.40;;;;;;;24.00;38.00;101152.81;31227189;28;20033;-58
